createdAt,value
2018-04-18T00:00:23.482Z,16.97
2018-04-18T00:02:52.974Z,16.97
2018-04-18T00:05:21.279Z,16.67
2018-04-18T00:07:50.533Z,16.46
2018-04-18T00:10:18.928Z,16.46
2018-04-18T00:12:47.284Z,16.41
2018-04-18T00:15:15.699Z,16.46
2018-04-18T00:17:44.914Z,16.47
2018-04-18T00:20:13.365Z,16.54
2018-04-18T00:22:41.888Z,16.53
2018-04-18T00:25:10.164Z,16.33
2018-04-18T00:27:38.695Z,16.18
2018-04-18T00:30:08.573Z,16.24
2018-04-18T00:32:37.073Z,16.33
2018-04-18T00:35:05.404Z,16.36
2018-04-18T00:37:35.744Z,16.43
2018-04-18T00:40:04.044Z,16.47
2018-04-18T00:42:32.541Z,16.55
2018-04-18T00:45:00.824Z,16.64
2018-04-18T00:47:29.221Z,16.58
2018-04-18T00:49:58.411Z,16.50
2018-04-18T00:52:26.742Z,16.42
2018-04-18T00:54:55.235Z,16.40
2018-04-18T00:57:23.544Z,16.42
2018-04-18T00:59:51.895Z,16.36
2018-04-18T01:02:20.175Z,16.45
2018-04-18T01:04:48.486Z,16.46
2018-04-18T01:07:16.809Z,16.37
2018-04-18T01:09:45.277Z,16.28
2018-04-18T01:12:13.630Z,16.25
2018-04-18T01:14:42.775Z,16.26
2018-04-18T01:17:11.496Z,16.31
2018-04-18T01:19:39.761Z,16.26
2018-04-18T01:22:08.064Z,16.26
2018-04-18T01:24:37.246Z,16.23
2018-04-18T01:27:05.565Z,16.17
2018-04-18T01:29:33.966Z,16.23
2018-04-18T01:32:02.410Z,16.21
2018-04-18T01:34:31.554Z,16.20
2018-04-18T01:36:59.899Z,16.13
2018-04-18T01:39:28.200Z,16.10
2018-04-18T01:41:56.726Z,16.11
2018-04-18T01:44:24.992Z,16.08
2018-04-18T01:46:53.298Z,16.04
2018-04-18T01:49:23.097Z,15.99
2018-04-18T01:51:52.315Z,16.01
2018-04-18T01:54:20.867Z,15.99
2018-04-18T01:56:50.011Z,16.06
2018-04-18T01:59:18.408Z,15.99
2018-04-18T02:01:46.737Z,15.75
2018-04-18T02:04:15.906Z,15.53
2018-04-18T02:06:44.315Z,15.54
2018-04-18T02:09:13.423Z,15.59
2018-04-18T02:11:41.723Z,15.59
2018-04-18T02:14:10.011Z,15.56
2018-04-18T02:16:38.299Z,15.60
2018-04-18T02:19:06.616Z,15.65
2018-04-18T02:21:35.764Z,15.64
2018-04-18T02:24:04.098Z,15.64
2018-04-18T02:26:32.465Z,15.70
2018-04-18T02:29:01.534Z,15.75
2018-04-18T02:31:29.833Z,15.76
2018-04-18T02:33:59.006Z,15.78
2018-04-18T02:36:27.292Z,15.79
2018-04-18T02:38:55.594Z,15.74
2018-04-18T02:41:23.921Z,15.77
2018-04-18T02:43:52.332Z,15.48
2018-04-18T02:46:21.408Z,15.40
2018-04-18T02:48:49.702Z,15.44
2018-04-18T02:51:17.993Z,15.49
2018-04-18T02:53:47.045Z,15.51
2018-04-18T02:56:15.360Z,15.51
2018-04-18T02:58:44.196Z,15.52
2018-04-18T03:01:12.617Z,15.57
2018-04-18T03:03:41.820Z,15.56
2018-04-18T03:06:10.954Z,15.53
2018-04-18T03:08:39.262Z,15.55
2018-04-18T03:11:07.723Z,15.57
2018-04-18T03:13:36.169Z,15.49
2018-04-18T03:16:04.637Z,15.49
2018-04-18T03:18:33.151Z,15.53
2018-04-18T03:21:01.418Z,15.52
2018-04-18T03:23:29.795Z,15.48
2018-04-18T03:25:58.167Z,15.37
2018-04-18T03:28:26.582Z,15.32
2018-04-18T03:30:54.889Z,15.32
2018-04-18T03:33:23.455Z,15.32
2018-04-18T03:35:51.912Z,15.15
2018-04-18T03:38:20.266Z,14.97
2018-04-18T03:40:48.580Z,15.00
2018-04-18T03:43:16.858Z,15.00
2018-04-18T03:45:45.276Z,15.05
2018-04-18T03:48:14.466Z,15.05
2018-04-18T03:50:42.815Z,15.12
2018-04-18T03:53:11.235Z,15.06
2018-04-18T03:55:40.513Z,15.07
2018-04-18T03:58:08.894Z,15.08
2018-04-18T04:00:37.217Z,15.15
2018-04-18T04:03:05.526Z,15.09
2018-04-18T04:05:33.969Z,15.02
2018-04-18T04:08:02.770Z,14.99
2018-04-18T04:10:32.754Z,14.97
2018-04-18T04:13:03.031Z,14.94
2018-04-18T04:15:31.474Z,14.99
2018-04-18T04:18:17.541Z,14.97
2018-04-18T04:21:04.418Z,14.95
2018-04-18T04:23:50.413Z,15.00
2018-04-18T04:26:18.902Z,15.01
2018-04-18T04:28:48.148Z,14.98
2018-04-18T04:31:16.542Z,14.92
2018-04-18T04:33:46.772Z,14.93
2018-04-18T04:36:15.122Z,14.94
2018-04-18T04:38:43.950Z,14.90
2018-04-18T04:41:12.293Z,14.90
2018-04-18T04:43:40.754Z,14.95
2018-04-18T04:46:09.855Z,14.92
2018-04-18T04:48:39.114Z,14.95
2018-04-18T04:51:07.591Z,14.90
2018-04-18T04:53:35.926Z,14.90
2018-04-18T04:56:04.314Z,14.88
2018-04-18T04:58:32.884Z,14.93
2018-04-18T05:01:01.375Z,14.90
2018-04-18T05:03:29.776Z,14.85
2018-04-18T05:05:58.128Z,14.89
2018-04-18T05:08:27.576Z,14.95
2018-04-18T05:10:55.881Z,15.02
2018-04-18T05:13:25.121Z,15.13
2018-04-18T05:15:53.410Z,15.15
2018-04-18T05:18:21.900Z,15.15
2018-04-18T05:20:50.216Z,15.18
2018-04-18T05:23:19.426Z,15.24
2018-04-18T05:25:47.816Z,15.24
2018-04-18T05:28:16.241Z,15.20
2018-04-18T05:30:44.561Z,15.22
2018-04-18T05:33:13.808Z,15.15
2018-04-18T05:35:42.115Z,15.27
2018-04-18T05:38:10.881Z,15.28
2018-04-18T05:40:39.215Z,15.34
2018-04-18T05:43:07.532Z,15.44
2018-04-18T05:45:36.425Z,15.51
2018-04-18T05:48:04.756Z,15.57
2018-04-18T05:50:33.249Z,15.58
2018-04-18T05:53:01.539Z,15.51
2018-04-18T05:55:29.889Z,15.76
2018-04-18T05:57:58.457Z,15.86
2018-04-18T06:00:27.530Z,15.98
2018-04-18T06:02:56.226Z,16.12
2018-04-18T06:05:24.525Z,16.16
2018-04-18T06:07:53.649Z,16.22
2018-04-18T06:10:21.943Z,16.33
2018-04-18T06:12:50.776Z,16.42
2018-04-18T06:15:19.981Z,16.50
2018-04-18T06:17:49.176Z,16.60
2018-04-18T06:20:18.275Z,16.65
2018-04-18T06:22:47.354Z,16.67
2018-04-18T06:25:16.465Z,16.78
2018-04-18T06:27:45.518Z,16.70
2018-04-18T06:30:13.891Z,16.62
2018-04-18T06:32:42.310Z,16.60
2018-04-18T06:35:11.361Z,16.73
2018-04-18T06:37:39.700Z,16.84
2018-04-18T06:40:08.017Z,16.88
2018-04-18T06:42:36.325Z,16.91
2018-04-18T06:45:06.113Z,16.97
2018-04-18T06:47:34.437Z,17.04
2018-04-18T06:50:02.745Z,17.07
2018-04-18T06:52:31.056Z,17.24
2018-04-18T06:54:59.321Z,17.31
2018-04-18T06:57:27.627Z,17.36
2018-04-18T06:59:56.715Z,17.53
2018-04-18T07:02:24.980Z,17.62
2018-04-18T07:04:53.295Z,17.69
2018-04-18T07:07:21.608Z,17.88
2018-04-18T07:09:49.942Z,17.96
2018-04-18T07:12:18.371Z,18.04
2018-04-18T07:14:47.747Z,18.21
2018-04-18T07:17:16.285Z,18.34
2018-04-18T07:19:44.708Z,18.48
2018-04-18T07:22:13.023Z,18.65
2018-04-18T07:24:41.371Z,18.77
2018-04-18T07:27:09.723Z,18.87
2018-04-18T07:29:38.028Z,18.95
2018-04-18T07:32:06.506Z,19.08
2018-04-18T07:34:34.817Z,19.18
2018-04-18T07:37:03.197Z,19.31
2018-04-18T07:39:31.483Z,19.42
2018-04-18T07:42:00.596Z,19.50
2018-04-18T07:44:29.806Z,19.58
2018-04-18T07:46:58.135Z,19.68
2018-04-18T07:49:26.483Z,19.75
2018-04-18T07:51:54.796Z,19.88
2018-04-18T07:54:23.116Z,19.98
2018-04-18T07:56:51.504Z,20.07
2018-04-18T07:59:19.813Z,20.15
2018-04-18T08:01:48.462Z,20.24
2018-04-18T08:04:17.068Z,20.31
2018-04-18T08:06:45.626Z,20.39
2018-04-18T08:09:14.120Z,20.46
2018-04-18T08:11:42.639Z,20.52
2018-04-18T08:14:12.113Z,20.58
2018-04-18T08:16:40.434Z,20.76
2018-04-18T08:19:09.523Z,20.86
2018-04-18T08:21:37.844Z,20.96
2018-04-18T08:24:06.522Z,21.05
2018-04-18T08:26:34.823Z,21.15
2018-04-18T08:29:03.217Z,21.21
2018-04-18T08:31:31.529Z,21.27
2018-04-18T08:33:59.940Z,21.34
2018-04-18T08:36:28.258Z,21.45
2018-04-18T08:38:56.572Z,21.50
2018-04-18T08:41:25.644Z,21.55
2018-04-18T08:43:53.997Z,21.63
2018-04-18T08:46:23.708Z,21.70
2018-04-18T08:48:52.126Z,21.76
2018-04-18T08:51:21.312Z,21.87
2018-04-18T08:53:49.598Z,21.88
2018-04-18T08:56:17.917Z,21.97
2018-04-18T08:58:46.187Z,22.07
2018-04-18T09:01:14.585Z,22.17
2018-04-18T09:03:43.040Z,22.27
2018-04-18T09:06:11.556Z,22.27
2018-04-18T09:08:39.967Z,22.27
2018-04-18T09:11:08.362Z,22.34
2018-04-18T09:13:37.429Z,22.34
2018-04-18T09:16:05.734Z,22.35
2018-04-18T09:18:34.958Z,22.43
2018-04-18T09:21:03.327Z,22.52
2018-04-18T09:23:31.802Z,22.58
2018-04-18T09:26:00.365Z,22.62
2018-04-18T09:28:29.556Z,22.66
2018-04-18T09:30:58.764Z,22.71
2018-04-18T09:33:27.235Z,22.76
2018-04-18T09:35:56.305Z,22.78
2018-04-18T09:38:24.619Z,22.80
2018-04-18T09:40:53.845Z,22.81
2018-04-18T09:43:22.225Z,22.91
2018-04-18T09:45:50.690Z,22.97
2018-04-18T09:48:19.016Z,23.09
2018-04-18T09:50:48.243Z,23.10
2018-04-18T09:53:18.453Z,23.16
2018-04-18T09:55:46.830Z,23.12
2018-04-18T09:58:15.339Z,23.16
2018-04-18T10:00:49.338Z,23.19
2018-04-18T10:03:18.650Z,23.15
2018-04-18T10:05:48.163Z,23.18
2018-04-18T10:08:16.497Z,23.17
2018-04-18T10:10:44.833Z,23.23
2018-04-18T10:13:13.396Z,23.32
2018-04-18T10:15:41.753Z,23.31
2018-04-18T10:18:10.932Z,23.38
2018-04-18T10:20:39.515Z,23.40
2018-04-18T10:23:07.879Z,23.43
2018-04-18T10:25:36.202Z,23.48
2018-04-18T10:28:06.195Z,23.60
2018-04-18T10:30:35.337Z,23.68
2018-04-18T10:33:03.625Z,23.70
2018-04-18T10:35:32.100Z,23.71
2018-04-18T10:38:00.416Z,23.77
2018-04-18T10:40:28.756Z,23.86
2018-04-18T10:42:57.054Z,23.96
2018-04-18T10:45:25.390Z,24.05
2018-04-18T10:47:53.708Z,24.11
2018-04-18T10:50:22.021Z,24.18
2018-04-18T10:52:51.225Z,24.23
2018-04-18T10:55:20.420Z,24.34
2018-04-18T10:57:49.553Z,24.48
2018-04-18T11:00:18.852Z,24.58
2018-04-18T11:02:47.547Z,24.63
2018-04-18T11:05:15.861Z,24.65
2018-04-18T11:07:44.159Z,24.65
2018-04-18T11:10:13.233Z,24.68
2018-04-18T11:12:41.557Z,24.71
2018-04-18T11:15:09.871Z,24.72
2018-04-18T11:17:38.220Z,24.87
2018-04-18T11:20:06.570Z,24.94
2018-04-18T11:22:35.622Z,25.03
2018-04-18T11:25:04.001Z,25.12
2018-04-18T11:27:32.394Z,25.26
2018-04-18T11:30:01.489Z,25.40
2018-04-18T11:32:29.813Z,25.44
2018-04-18T11:34:58.174Z,25.58
2018-04-18T11:37:26.696Z,25.72
2018-04-18T11:39:55.149Z,25.75
2018-04-18T11:42:23.464Z,25.78
2018-04-18T11:44:51.808Z,25.91
2018-04-18T11:47:20.270Z,25.93
2018-04-18T11:49:48.626Z,25.95
2018-04-18T11:52:17.263Z,26.07
2018-04-18T11:54:45.681Z,26.22
2018-04-18T11:57:14.019Z,26.41
2018-04-18T11:59:42.958Z,26.52
2018-04-18T12:02:13.341Z,26.61
2018-04-18T12:04:41.638Z,26.67
2018-04-18T12:07:10.007Z,26.72
2018-04-18T12:09:38.389Z,26.73
2018-04-18T12:12:06.834Z,26.75
2018-04-18T12:14:35.359Z,26.77
2018-04-18T12:17:03.675Z,26.81
2018-04-18T12:19:32.019Z,26.91
2018-04-18T12:22:00.378Z,27.08
2018-04-18T12:24:28.737Z,27.24
2018-04-18T12:26:57.229Z,27.29
2018-04-18T12:29:25.697Z,27.30
2018-04-18T12:31:54.244Z,27.30
2018-04-18T12:34:23.356Z,27.45
2018-04-18T12:36:51.752Z,27.57
2018-04-18T12:39:20.122Z,27.71
2018-04-18T12:41:48.467Z,27.76
2018-04-18T12:44:17.559Z,27.43
2018-04-18T12:46:45.968Z,27.39
2018-04-18T12:49:14.431Z,27.52
2018-04-18T12:51:42.868Z,27.69
2018-04-18T12:54:11.238Z,27.93
2018-04-18T12:56:39.566Z,28.13
2018-04-18T12:59:08.720Z,28.31
2018-04-18T13:01:37.617Z,28.45
2018-04-18T13:04:06.087Z,28.54
2018-04-18T13:06:34.416Z,28.67
2018-04-18T13:09:03.680Z,28.77
2018-04-18T13:11:32.016Z,28.87
2018-04-18T13:14:00.335Z,29.01
2018-04-18T13:16:28.696Z,29.11
2018-04-18T13:18:56.996Z,29.13
2018-04-18T13:21:25.345Z,29.32
2018-04-18T13:23:53.647Z,29.43
2018-04-18T13:26:22.753Z,29.53
2018-04-18T13:28:51.097Z,29.55
2018-04-18T13:31:19.902Z,29.59
2018-04-18T13:33:48.303Z,29.53
2018-04-18T13:36:17.445Z,29.64
2018-04-18T13:38:45.801Z,29.87
2018-04-18T13:41:14.125Z,29.99
2018-04-18T13:43:42.836Z,30.04
2018-04-18T13:46:11.243Z,30.09
2018-04-18T13:48:39.675Z,30.16
2018-04-18T13:51:08.224Z,30.13
2018-04-18T13:53:36.659Z,30.18
2018-04-18T13:56:05.986Z,30.25
2018-04-18T13:58:34.328Z,30.28
2018-04-18T14:01:02.837Z,30.35
2018-04-18T14:03:32.155Z,30.33
2018-04-18T14:06:00.666Z,30.21
2018-04-18T14:08:29.001Z,30.18
2018-04-18T14:10:57.515Z,30.33
2018-04-18T14:13:26.080Z,30.43
2018-04-18T14:15:54.413Z,30.48
2018-04-18T14:18:22.847Z,30.50
2018-04-18T14:20:51.484Z,30.56
2018-04-18T14:23:19.896Z,30.56
2018-04-18T14:25:48.212Z,30.62
2018-04-18T14:28:16.585Z,30.76
2018-04-18T14:30:44.905Z,30.75
2018-04-18T14:33:15.209Z,30.61
2018-04-18T14:35:44.567Z,30.70
2018-04-18T14:38:12.947Z,30.83
2018-04-18T14:40:41.344Z,30.99
2018-04-18T14:43:09.642Z,31.08
2018-04-18T14:45:38.017Z,31.00
2018-04-18T14:48:06.327Z,31.00
2018-04-18T14:50:35.422Z,31.13
2018-04-18T14:53:04.548Z,31.21
2018-04-18T14:55:32.882Z,31.26
2018-04-18T14:58:01.283Z,31.39
2018-04-18T15:00:29.624Z,31.56
2018-04-18T15:02:57.929Z,31.67
2018-04-18T15:05:28.254Z,31.74
2018-04-18T15:07:57.568Z,31.83
2018-04-18T15:10:26.045Z,31.98
2018-04-18T15:12:54.396Z,32.14
2018-04-18T15:15:22.736Z,32.39
2018-04-18T15:17:51.094Z,32.68
2018-04-18T15:20:20.220Z,33.18
2018-04-18T15:22:48.589Z,33.74
2018-04-18T15:25:16.924Z,34.49
2018-04-18T15:27:45.995Z,35.19
2018-04-18T15:30:14.334Z,35.62
2018-04-18T15:32:42.698Z,35.83
2018-04-18T15:35:11.171Z,36.25
2018-04-18T15:37:40.834Z,36.49
2018-04-18T15:40:09.147Z,35.41
2018-04-18T15:42:37.495Z,36.47
2018-04-18T15:45:05.873Z,37.36
2018-04-18T15:47:34.291Z,38.04
2018-04-18T15:50:02.651Z,37.81
2018-04-18T15:52:31.007Z,37.61
2018-04-18T15:54:59.480Z,37.99
2018-04-18T15:57:28.625Z,38.31
2018-04-18T15:59:56.994Z,38.48
2018-04-18T16:02:25.366Z,38.04
2018-04-18T16:04:54.465Z,38.05
2018-04-18T16:07:23.565Z,37.84
2018-04-18T16:09:53.144Z,37.94
2018-04-18T16:12:21.623Z,38.39
2018-04-18T16:14:50.265Z,38.71
2018-04-18T16:17:18.653Z,38.84
2018-04-18T16:19:47.010Z,38.74
2018-04-18T16:22:15.342Z,38.50
2018-04-18T16:24:43.716Z,38.61
2018-04-18T16:27:12.819Z,38.53
2018-04-18T16:29:44.010Z,38.69
2018-04-18T16:32:12.691Z,38.50
2018-04-18T16:34:41.174Z,38.54
2018-04-18T16:37:09.496Z,38.57
2018-04-18T16:39:37.986Z,38.39
2018-04-18T16:42:06.322Z,38.51
2018-04-18T16:44:36.704Z,38.39
2018-04-18T16:47:07.045Z,38.02
2018-04-18T16:49:35.383Z,37.94
2018-04-18T16:52:03.972Z,37.90
2018-04-18T16:54:32.558Z,37.65
2018-04-18T16:57:00.919Z,37.49
2018-04-18T16:59:30.153Z,37.17
2018-04-18T17:01:59.256Z,36.95
2018-04-18T17:04:27.776Z,36.98
2018-04-18T17:06:56.126Z,36.51
2018-04-18T17:09:24.484Z,36.51
2018-04-18T17:11:53.936Z,36.25
2018-04-18T17:14:22.296Z,35.95
2018-04-18T17:16:50.759Z,35.86
2018-04-18T17:19:19.224Z,35.87
2018-04-18T17:21:48.486Z,35.67
2018-04-18T17:24:18.635Z,35.47
2018-04-18T17:26:47.814Z,35.40
2018-04-18T17:29:16.188Z,35.30
2018-04-18T17:31:44.639Z,34.79
2018-04-18T17:34:13.290Z,34.07
2018-04-18T17:36:41.799Z,33.11
2018-04-18T17:39:10.209Z,32.23
2018-04-18T17:41:38.589Z,31.34
2018-04-18T17:44:07.225Z,30.74
2018-04-18T17:46:35.612Z,30.18
2018-04-18T17:49:05.513Z,29.65
2018-04-18T17:51:34.598Z,29.18
2018-04-18T17:54:04.935Z,28.74
2018-04-18T17:56:33.300Z,28.38
2018-04-18T17:59:02.543Z,28.09
2018-04-18T18:01:30.930Z,27.82
2018-04-18T18:04:00.528Z,27.54
2018-04-18T18:06:29.148Z,27.33
2018-04-18T18:08:57.853Z,27.13
2018-04-18T18:11:26.964Z,26.98
2018-04-18T18:13:55.458Z,26.83
2018-04-18T18:16:23.933Z,26.74
2018-04-18T18:18:52.644Z,26.66
2018-04-18T18:21:20.993Z,26.56
2018-04-18T18:23:49.610Z,26.48
2018-04-18T18:26:17.978Z,26.37
2018-04-18T18:28:46.686Z,26.26
2018-04-18T18:31:15.324Z,26.15
2018-04-18T18:33:43.685Z,25.98
2018-04-18T18:36:12.849Z,25.90
2018-04-18T18:38:41.291Z,25.79
2018-04-18T18:41:09.703Z,25.70
2018-04-18T18:43:38.050Z,25.57
2018-04-18T18:46:06.472Z,25.48
2018-04-18T18:48:34.804Z,25.31
2018-04-18T18:51:03.294Z,25.18
2018-04-18T18:53:31.784Z,25.13
2018-04-18T18:56:00.284Z,25.05
2018-04-18T18:58:28.796Z,25.04
2018-04-18T19:00:57.281Z,25.00
2018-04-18T19:03:26.700Z,24.99
2018-04-18T19:05:56.244Z,24.95
2018-04-18T19:08:24.649Z,24.92
2018-04-18T19:10:53.052Z,24.85
2018-04-18T19:13:21.524Z,24.79
2018-04-18T19:15:49.990Z,24.72
2018-04-18T19:18:18.544Z,24.63
2018-04-18T19:20:46.937Z,24.58
2018-04-18T19:23:15.483Z,24.52
2018-04-18T19:25:43.866Z,24.44
2018-04-18T19:28:12.312Z,24.38
2018-04-18T19:30:41.542Z,24.30
2018-04-18T19:33:09.918Z,24.22
2018-04-18T19:35:38.277Z,24.11
2018-04-18T19:38:06.759Z,24.02
2018-04-18T19:40:36.219Z,23.95
2018-04-18T19:43:05.090Z,23.92
2018-04-18T19:45:33.780Z,23.81
2018-04-18T19:48:02.212Z,23.69
2018-04-18T19:50:31.550Z,23.64
2018-04-18T19:53:00.240Z,23.61
2018-04-18T19:55:28.717Z,23.58
2018-04-18T19:57:58.311Z,23.56
2018-04-18T20:00:26.672Z,23.52
2018-04-18T20:02:56.510Z,23.48
2018-04-18T20:05:24.931Z,23.42
2018-04-18T20:07:53.347Z,23.35
2018-04-18T20:10:22.697Z,23.27
2018-04-18T20:12:52.150Z,23.20
2018-04-18T20:15:21.579Z,23.16
2018-04-18T20:17:49.894Z,23.11
2018-04-18T20:20:18.233Z,23.04
2018-04-18T20:22:46.740Z,22.98
2018-04-18T20:25:15.131Z,22.91
2018-04-18T20:27:43.556Z,22.85
2018-04-18T20:30:12.014Z,22.78
2018-04-18T20:32:41.313Z,22.62
2018-04-18T20:35:10.608Z,22.57
2018-04-18T20:37:40.050Z,22.38
2018-04-18T20:40:08.574Z,22.14
2018-04-18T20:42:37.098Z,22.13
2018-04-18T20:45:05.581Z,22.15
2018-04-18T20:47:34.738Z,22.17
2018-04-18T20:50:03.383Z,22.20
2018-04-18T20:52:34.521Z,22.20
2018-04-18T20:55:02.971Z,22.17
2018-04-18T20:57:32.297Z,22.16
2018-04-18T21:00:00.685Z,22.13
2018-04-18T21:02:29.092Z,22.09
2018-04-18T21:04:57.616Z,22.06
2018-04-18T21:07:26.807Z,22.00
2018-04-18T21:09:55.894Z,21.93
2018-04-18T21:12:25.117Z,21.90
2018-04-18T21:14:54.329Z,21.81
2018-04-18T21:17:22.666Z,21.76
2018-04-18T21:19:51.918Z,21.74
2018-04-18T21:22:20.355Z,21.75
2018-04-18T21:24:49.504Z,21.70
2018-04-18T21:27:18.217Z,21.61
2018-04-18T21:29:46.557Z,21.60
2018-04-18T21:32:14.917Z,21.52
2018-04-18T21:34:43.240Z,21.44
2018-04-18T21:37:11.573Z,21.43
2018-04-18T21:39:40.085Z,21.34
2018-04-18T21:42:08.447Z,21.32
2018-04-18T21:44:36.857Z,21.27
2018-04-18T21:47:06.946Z,21.26
2018-04-18T21:49:35.470Z,21.24
2018-04-18T21:52:04.025Z,21.17
2018-04-18T21:54:32.566Z,21.13
2018-04-18T21:57:01.770Z,21.10
2018-04-18T21:59:31.428Z,21.08
2018-04-18T22:02:00.685Z,21.04
2018-04-18T22:04:29.166Z,20.98
2018-04-18T22:06:57.682Z,20.93
2018-04-18T22:09:25.990Z,20.87
2018-04-18T22:11:54.451Z,20.80
2018-04-18T22:14:22.807Z,20.76
2018-04-18T22:16:51.219Z,20.71
2018-04-18T22:19:20.851Z,20.62
2018-04-18T22:21:49.939Z,20.61
2018-04-18T22:24:19.017Z,20.61
2018-04-18T22:26:47.303Z,20.57
2018-04-18T22:29:15.703Z,20.56
2018-04-18T22:31:44.019Z,20.54
2018-04-18T22:34:12.480Z,20.49
2018-04-18T22:36:40.830Z,20.46
2018-04-18T22:39:10.188Z,20.41
2018-04-18T22:41:38.475Z,20.37
2018-04-18T22:44:06.808Z,20.31
2018-04-18T22:46:35.213Z,20.25
2018-04-18T22:49:03.542Z,20.14
2018-04-18T22:51:33.853Z,20.13
2018-04-18T22:54:03.073Z,20.07
2018-04-18T22:56:31.463Z,19.95
2018-04-18T22:58:59.957Z,19.84
2018-04-18T23:01:30.276Z,19.96
2018-04-18T23:03:58.563Z,20.01
2018-04-18T23:06:26.885Z,20.04
2018-04-18T23:08:55.249Z,20.04
2018-04-18T23:11:24.453Z,20.00
2018-04-18T23:13:52.779Z,19.98
2018-04-18T23:16:21.224Z,19.95
2018-04-18T23:18:49.495Z,19.96
2018-04-18T23:21:18.575Z,19.92
2018-04-18T23:23:46.962Z,19.85
2018-04-18T23:26:15.242Z,19.85
2018-04-18T23:28:44.680Z,19.82
2018-04-18T23:31:13.016Z,19.75
2018-04-18T23:33:41.328Z,19.72
2018-04-18T23:36:09.627Z,19.65
2018-04-18T23:38:38.040Z,19.57
2018-04-18T23:41:06.352Z,19.55
2018-04-18T23:43:34.890Z,19.51
2018-04-18T23:46:03.234Z,19.52
2018-04-18T23:48:31.643Z,19.51
2018-04-18T23:51:00.015Z,19.47
2018-04-18T23:53:28.299Z,19.41
2018-04-18T23:55:56.653Z,19.43
2018-04-18T23:58:24.954Z,19.35
